createdAt,value
2019-04-11T00:00:03.671Z,6.4
2019-04-11T00:01:03.978Z,6.4
2019-04-11T00:02:02.954Z,6.4
2019-04-11T00:03:03.164Z,6.4
2019-04-11T00:04:03.670Z,6.4
2019-04-11T00:05:02.939Z,6.4
2019-04-11T00:06:03.490Z,6.4
2019-04-11T00:07:03.876Z,6.3
2019-04-11T00:08:03.919Z,6.3
2019-04-11T00:09:03.435Z,6.3
2019-04-11T00:10:03.817Z,6.2
2019-04-11T00:11:03.902Z,6.1
2019-04-11T00:12:03.610Z,6.1
2019-04-11T00:13:25.480Z,6
2019-04-11T00:14:03.350Z,5.9
2019-04-11T00:15:04.493Z,5.9
2019-04-11T00:16:04.433Z,5.9
2019-04-11T00:17:03.872Z,5.9
2019-04-11T00:18:03.333Z,5.9
2019-04-11T00:19:03.271Z,5.9
2019-04-11T00:20:04.371Z,5.8
2019-04-11T00:21:03.012Z,5.8
2019-04-11T00:22:03.625Z,5.7
2019-04-11T00:23:02.950Z,5.6
2019-04-11T00:24:03.089Z,5.6
2019-04-11T00:25:03.295Z,5.6
2019-04-11T00:26:02.719Z,5.6
2019-04-11T00:27:02.695Z,5.6
2019-04-11T00:28:03.680Z,5.7
2019-04-11T00:29:04.069Z,5.7
2019-04-11T00:30:04.093Z,5.7
2019-04-11T00:31:02.758Z,5.6
2019-04-11T00:32:10.718Z,5.5
2019-04-11T00:33:03.548Z,5.4
2019-04-11T00:34:04.741Z,5.4
2019-04-11T00:35:03.821Z,5.4
2019-04-11T00:36:04.368Z,5.4
2019-04-11T00:37:03.626Z,5.4
2019-04-11T00:38:03.437Z,5.3
2019-04-11T00:39:03.610Z,5.3
2019-04-11T00:40:04.063Z,5.3
2019-04-11T00:41:03.883Z,5.3
2019-04-11T00:42:04.137Z,5.3
2019-04-11T00:43:03.337Z,5.3
2019-04-11T00:44:03.062Z,5.3
2019-04-11T00:45:03.499Z,5.2
2019-04-11T00:46:04.376Z,5.3
2019-04-11T00:47:02.909Z,5.2
2019-04-11T00:48:04.004Z,5.2
2019-04-11T00:49:03.274Z,5.2
2019-04-11T00:50:05.683Z,5.2
2019-04-11T00:51:03.663Z,5.2
2019-04-11T00:52:04.707Z,5.2
2019-04-11T00:53:03.720Z,5.1
2019-04-11T00:54:04.888Z,5.1
2019-04-11T00:55:03.658Z,5.1
2019-04-11T00:56:04.213Z,5.1
2019-04-11T00:57:02.937Z,5.1
2019-04-11T00:58:03.588Z,5.1
2019-04-11T00:59:03.072Z,5.1
2019-04-11T01:00:03.497Z,5.1
2019-04-11T01:01:03.859Z,5.1
2019-04-11T01:02:03.079Z,5
2019-04-11T01:03:06.521Z,5
2019-04-11T01:04:03.514Z,5
2019-04-11T01:05:03.688Z,4.9
2019-04-11T01:06:03.827Z,4.9
2019-04-11T01:07:04.857Z,5
2019-04-11T01:08:03.233Z,4.9
2019-04-11T01:09:04.224Z,4.9
2019-04-11T01:10:02.811Z,4.9
2019-04-11T01:11:03.703Z,4.9
2019-04-11T01:12:02.789Z,4.9
2019-04-11T01:13:03.007Z,5
2019-04-11T01:14:03.739Z,4.9
2019-04-11T01:15:03.308Z,4.9
2019-04-11T01:16:03.179Z,4.9
2019-04-11T01:17:03.334Z,4.9
2019-04-11T01:18:03.779Z,4.9
2019-04-11T01:19:02.859Z,4.9
2019-04-11T01:20:03.141Z,4.9
2019-04-11T01:21:04.147Z,4.9
2019-04-11T01:22:02.824Z,4.9
2019-04-11T01:23:02.966Z,4.9
2019-04-11T01:24:03.929Z,4.9
2019-04-11T01:25:04.278Z,4.9
2019-04-11T01:26:03.380Z,4.9
2019-04-11T01:27:03.564Z,5
2019-04-11T01:28:04.704Z,5.1
2019-04-11T01:29:03.357Z,5.1
2019-04-11T01:30:04.153Z,5.1
2019-04-11T01:31:03.371Z,5.1
2019-04-11T01:32:04.405Z,5.1
2019-04-11T01:33:04.660Z,5.1
2019-04-11T01:34:03.028Z,5.1
2019-04-11T01:35:03.268Z,5.1
2019-04-11T01:36:03.070Z,5.1
2019-04-11T01:37:03.914Z,5.1
2019-04-11T01:38:04.164Z,5.2
2019-04-11T01:39:03.189Z,5.2
2019-04-11T01:40:02.886Z,5.2
2019-04-11T01:41:03.169Z,5.2
2019-04-11T01:42:02.907Z,5.2
2019-04-11T01:43:04.037Z,5.2
2019-04-11T01:44:08.583Z,5.2
2019-04-11T01:45:03.358Z,5.3
2019-04-11T01:46:02.993Z,5.3
2019-04-11T01:47:03.171Z,5.3
2019-04-11T01:48:03.787Z,5.3
2019-04-11T01:49:04.030Z,5.2
2019-04-11T01:50:03.253Z,5.3
2019-04-11T01:51:03.240Z,5.3
2019-04-11T01:52:06.253Z,5.3
2019-04-11T01:53:03.227Z,5.3
2019-04-11T01:54:01.803Z,5.3
2019-04-11T01:55:04.083Z,5.3
2019-04-11T01:56:03.221Z,5.3
2019-04-11T01:57:03.598Z,5.3
2019-04-11T01:58:02.746Z,5.3
2019-04-11T01:59:02.976Z,5.3
2019-04-11T02:00:04.034Z,5.4
2019-04-11T02:01:02.688Z,5.3
2019-04-11T02:02:03.552Z,5.3
2019-04-11T02:03:03.490Z,5.3
2019-04-11T02:04:03.784Z,5.3
2019-04-11T02:05:05.003Z,5.3
2019-04-11T02:06:03.406Z,5.3
2019-04-11T02:07:04.705Z,5.3
2019-04-11T02:08:03.449Z,5.3
2019-04-11T02:09:04.033Z,5.3
2019-04-11T02:10:04.434Z,5.3
2019-04-11T02:11:03.500Z,5.3
2019-04-11T02:12:03.805Z,5.3
2019-04-11T02:13:03.733Z,5.3
2019-04-11T02:14:18.301Z,5.3
2019-04-11T02:15:04.109Z,5.3
2019-04-11T02:16:03.366Z,5.3
2019-04-11T02:17:03.280Z,5.3
2019-04-11T02:18:03.491Z,5.3
2019-04-11T02:19:03.786Z,5.3
2019-04-11T02:20:02.966Z,5.3
2019-04-11T02:21:03.348Z,5.3
2019-04-11T02:22:04.234Z,5.3
2019-04-11T02:23:03.047Z,5.3
2019-04-11T02:24:03.820Z,5.3
2019-04-11T02:25:03.985Z,5.3
2019-04-11T02:26:03.170Z,5.3
2019-04-11T02:27:03.162Z,5.3
2019-04-11T02:28:02.877Z,5.3
2019-04-11T02:29:03.648Z,5.3
2019-04-11T02:30:04.781Z,5.3
2019-04-11T02:31:10.050Z,5.3
2019-04-11T02:32:07.542Z,5.3
2019-04-11T02:33:07.154Z,5.3
2019-04-11T02:34:08.516Z,5.3
2019-04-11T02:35:08.639Z,5.3
2019-04-11T02:36:07.190Z,5.3
2019-04-11T02:37:07.120Z,5.3
2019-04-11T02:38:05.101Z,5.3
2019-04-11T02:39:17.533Z,5.3
2019-04-11T02:40:08.052Z,5.3
2019-04-11T02:41:09.814Z,5.3
2019-04-11T02:42:04.267Z,5.4
2019-04-11T02:43:09.248Z,5.4
2019-04-11T02:44:26.827Z,5.3
2019-04-11T02:46:35.167Z,5.3
2019-04-11T02:47:22.746Z,5.3
2019-04-11T02:48:08.191Z,5.3
2019-04-11T02:49:03.492Z,5.3
2019-04-11T02:50:07.732Z,5.4
2019-04-11T02:51:07.692Z,5.4
2019-04-11T02:52:03.509Z,5.4
2019-04-11T02:53:06.816Z,5.3
2019-04-11T02:54:07.647Z,5.3
2019-04-11T02:55:07.799Z,5.3
2019-04-11T02:56:03.215Z,5.3
2019-04-11T02:57:03.316Z,5.3
2019-04-11T02:58:07.784Z,5.3
2019-04-11T02:59:05.611Z,5.3
2019-04-11T03:00:06.843Z,5.3
2019-04-11T03:01:09.780Z,5.3
2019-04-11T03:02:08.574Z,5.3
2019-04-11T03:03:08.021Z,5.3
2019-04-11T03:04:07.596Z,5.3
2019-04-11T03:05:09.279Z,5.3
2019-04-11T03:06:04.622Z,5.4
2019-04-11T03:07:06.051Z,5.3
2019-04-11T03:08:15.666Z,5.3
2019-04-11T03:09:04.797Z,5.4
2019-04-11T03:10:09.084Z,5.3
2019-04-11T03:11:07.653Z,5.3
2019-04-11T03:12:03.149Z,5.3
2019-04-11T03:13:05.114Z,5.3
2019-04-11T03:14:04.256Z,5.3
2019-04-11T03:15:54.328Z,5.3
2019-04-11T03:16:42.509Z,5.3
2019-04-11T03:17:24.900Z,5.3
2019-04-11T03:18:12.004Z,5.3
2019-04-11T03:19:47.551Z,5.3
2019-04-11T03:20:34.259Z,5.3
2019-04-11T03:21:20.312Z,5.3
2019-04-11T03:22:03.586Z,5.3
2019-04-11T03:23:12.724Z,5.3
2019-04-11T03:24:10.397Z,5.3
2019-04-11T03:25:07.911Z,5.3
2019-04-11T03:26:07.444Z,5.3
2019-04-11T03:27:08.991Z,5.2
2019-04-11T03:28:16.508Z,5.2
2019-04-11T03:29:08.051Z,5.3
2019-04-11T03:30:07.769Z,5.2
2019-04-11T03:33:16.025Z,5.3
2019-04-11T03:33:42.533Z,5.3
2019-04-11T03:35:19.614Z,5.3
2019-04-11T03:37:22.910Z,5.3
2019-04-11T03:37:25.702Z,5.2
2019-04-11T03:38:18.249Z,5.3
2019-04-11T03:39:00.105Z,5.3
2019-04-11T03:40:04.148Z,5.2
2019-04-11T03:41:00.245Z,5.2
2019-04-11T03:41:54.436Z,5.2
2019-04-11T03:42:46.102Z,5.2
2019-04-11T03:43:41.648Z,5.1
2019-04-11T03:44:28.452Z,5.1
2019-04-11T03:46:03.404Z,5.2
2019-04-11T03:46:49.137Z,5.2
2019-04-11T03:47:39.828Z,5.2
2019-04-11T03:48:32.787Z,5.1
2019-04-11T03:49:37.357Z,5.1
2019-04-11T03:50:19.360Z,5.1
2019-04-11T03:51:04.921Z,5.1
2019-04-11T03:52:08.294Z,5.1
2019-04-11T03:53:10.550Z,5.1
2019-04-11T03:54:03.037Z,5.1
2019-04-11T03:55:08.779Z,5.2
2019-04-11T03:56:05.112Z,5.1
2019-04-11T03:57:07.359Z,5.1
2019-04-11T03:58:07.978Z,5.1
2019-04-11T03:59:08.432Z,5.1
2019-04-11T04:00:06.601Z,5.1
2019-04-11T04:01:11.632Z,5.1
2019-04-11T04:02:07.758Z,5.1
2019-04-11T04:03:06.441Z,5.1
2019-04-11T04:04:03.589Z,5.1
2019-04-11T04:05:08.325Z,5.1
2019-04-11T04:06:07.311Z,5.1
2019-04-11T04:07:07.262Z,5
2019-04-11T04:08:06.286Z,5.1
2019-04-11T04:09:03.674Z,5.1
2019-04-11T04:10:11.419Z,5.1
2019-04-11T04:11:06.054Z,5.1
2019-04-11T04:12:05.104Z,5.1
2019-04-11T04:13:13.710Z,5.1
2019-04-11T04:14:04.652Z,5.1
2019-04-11T04:15:10.583Z,5.1
2019-04-11T04:16:29.176Z,5.1
2019-04-11T04:17:08.416Z,5.1
2019-04-11T04:18:06.318Z,5
2019-04-11T04:19:05.511Z,5.1
2019-04-11T04:20:05.325Z,5.1
2019-04-11T04:21:09.221Z,5.1
2019-04-11T04:22:05.142Z,5
2019-04-11T04:23:07.995Z,5.1
2019-04-11T04:24:04.428Z,5.1
2019-04-11T04:25:04.601Z,5
2019-04-11T04:26:07.344Z,5
2019-04-11T04:27:09.323Z,5
2019-04-11T04:28:07.808Z,5.1
2019-04-11T04:29:04.703Z,5.1
2019-04-11T04:30:06.248Z,5.1
2019-04-11T04:31:07.385Z,5.1
2019-04-11T04:32:08.282Z,5.1
2019-04-11T04:33:07.054Z,5.1
2019-04-11T04:34:04.003Z,5.1
2019-04-11T04:35:14.871Z,5.1
2019-04-11T04:36:11.127Z,5.1
2019-04-11T04:37:07.682Z,5
2019-04-11T04:38:05.309Z,5
2019-04-11T04:39:05.920Z,5
2019-04-11T04:40:50.735Z,5
2019-04-11T04:41:33.258Z,4.9
2019-04-11T04:42:24.801Z,4.9
2019-04-11T04:43:10.251Z,4.9
2019-04-11T04:44:06.954Z,4.9
2019-04-11T04:45:09.524Z,5
2019-04-11T04:46:46.850Z,5
2019-04-11T04:47:31.142Z,5
2019-04-11T04:48:16.375Z,4.9
2019-04-11T04:49:06.732Z,4.9
2019-04-11T04:50:06.587Z,4.9
2019-04-11T04:51:13.268Z,4.9
2019-04-11T04:52:08.048Z,4.9
2019-04-11T04:53:06.906Z,4.9
2019-04-11T04:54:05.386Z,4.9
2019-04-11T04:55:06.324Z,4.9
2019-04-11T04:56:03.495Z,4.9
2019-04-11T04:57:06.828Z,4.9
2019-04-11T04:58:05.085Z,4.9
2019-04-11T04:59:09.504Z,4.9
2019-04-11T05:00:07.316Z,4.9
2019-04-11T05:01:07.157Z,4.9
2019-04-11T05:02:08.274Z,4.9
2019-04-11T05:03:04.964Z,4.9
2019-04-11T05:04:06.773Z,4.9
2019-04-11T05:05:06.392Z,4.9
2019-04-11T05:06:04.512Z,4.9
2019-04-11T05:07:05.362Z,4.9
2019-04-11T05:08:03.202Z,4.9
2019-04-11T05:09:04.492Z,4.9
2019-04-11T05:10:08.839Z,4.9
2019-04-11T05:11:04.805Z,4.9
2019-04-11T05:12:03.677Z,5
2019-04-11T05:13:05.814Z,5
2019-04-11T05:14:06.793Z,5
2019-04-11T05:15:03.948Z,4.9
2019-04-11T05:16:18.124Z,4.9
2019-04-11T05:17:03.673Z,4.9
2019-04-11T05:18:05.700Z,4.9
2019-04-11T05:19:04.636Z,5.1
2019-04-11T05:20:05.126Z,5.1
2019-04-11T05:21:03.473Z,5.1
2019-04-11T05:22:03.444Z,5.1
2019-04-11T05:23:04.481Z,5
2019-04-11T05:24:04.184Z,5
2019-04-11T05:25:06.783Z,5.1
2019-04-11T05:26:03.636Z,5.1
2019-04-11T05:27:02.643Z,5.1
2019-04-11T05:28:04.449Z,5
2019-04-11T05:29:02.994Z,5.1
2019-04-11T05:30:03.508Z,5
2019-04-11T05:31:03.272Z,5
2019-04-11T05:32:03.252Z,5.1
2019-04-11T05:33:04.126Z,5.1
2019-04-11T05:34:03.635Z,5.1
2019-04-11T05:35:04.920Z,5.1
2019-04-11T05:36:04.009Z,5.1
2019-04-11T05:37:02.486Z,5.1
2019-04-11T05:38:02.970Z,5.1
2019-04-11T05:39:03.090Z,5.1
2019-04-11T05:40:03.278Z,5.1
2019-04-11T05:41:04.332Z,5.1
2019-04-11T05:42:03.367Z,5.1
2019-04-11T05:43:04.017Z,5.1
2019-04-11T05:44:11.064Z,5.1
2019-04-11T05:45:03.451Z,5.1
2019-04-11T05:46:38.580Z,5.1
2019-04-11T05:47:07.028Z,5
2019-04-11T05:48:03.408Z,5.1
2019-04-11T05:49:05.485Z,5.1
2019-04-11T05:50:13.610Z,5.1
2019-04-11T05:51:04.692Z,5.1
2019-04-11T05:52:04.104Z,5.1
2019-04-11T05:53:05.669Z,5.1
2019-04-11T05:54:09.557Z,5.1
2019-04-11T05:55:03.362Z,5.1
2019-04-11T05:56:03.859Z,5.1
2019-04-11T05:57:03.437Z,5.1
2019-04-11T05:58:14.451Z,5.2
2019-04-11T05:59:03.418Z,5.2
2019-04-11T06:00:03.655Z,5.1
2019-04-11T06:01:03.599Z,5.2
2019-04-11T06:02:09.207Z,5.2
2019-04-11T06:03:04.020Z,5.1
2019-04-11T06:04:03.051Z,5.2
2019-04-11T06:05:03.543Z,5.2
2019-04-11T06:06:04.931Z,5.2
2019-04-11T06:07:03.443Z,5.2
2019-04-11T06:08:02.854Z,5.2
2019-04-11T06:09:04.136Z,5.2
2019-04-11T06:10:11.176Z,5.2
2019-04-11T06:11:06.449Z,5.2
2019-04-11T06:12:03.437Z,5.2
2019-04-11T06:13:02.824Z,5.3
2019-04-11T06:14:07.430Z,5.3
2019-04-11T06:15:04.092Z,5.3
2019-04-11T06:16:04.735Z,5.3
2019-04-11T06:17:03.082Z,5.3
2019-04-11T06:18:03.341Z,5.3
2019-04-11T06:19:02.571Z,5.3
2019-04-11T06:20:04.208Z,5.2
2019-04-11T06:21:04.121Z,5.2
2019-04-11T06:22:04.748Z,5.2
2019-04-11T06:23:05.094Z,5.3
2019-04-11T06:24:03.705Z,5.2
2019-04-11T06:25:08.606Z,5.2
2019-04-11T06:26:03.249Z,5.1
2019-04-11T06:27:04.184Z,5.1
2019-04-11T06:28:04.230Z,5.2
2019-04-11T06:29:25.890Z,5.2
2019-04-11T06:30:03.575Z,5.2
2019-04-11T06:31:06.179Z,5.2
2019-04-11T06:32:03.687Z,5.2
2019-04-11T06:33:04.745Z,5.2
2019-04-11T06:34:03.205Z,5.2
2019-04-11T06:35:04.111Z,5.3
2019-04-11T06:36:04.392Z,5.3
2019-04-11T06:37:03.730Z,5.3
2019-04-11T06:38:02.929Z,5.3
2019-04-11T06:39:03.104Z,5.3
2019-04-11T06:40:04.289Z,5.3
2019-04-11T06:41:03.088Z,5.3
2019-04-11T06:42:05.969Z,5.4
2019-04-11T06:43:03.681Z,5.4
2019-04-11T06:44:02.694Z,5.4
2019-04-11T06:45:04.195Z,5.5
2019-04-11T06:46:03.448Z,5.5
2019-04-11T06:47:05.493Z,5.5
2019-04-11T06:48:02.881Z,5.5
2019-04-11T06:49:04.608Z,5.6
2019-04-11T06:50:03.808Z,5.5
2019-04-11T06:51:04.014Z,5.5
2019-04-11T06:52:04.455Z,5.6
2019-04-11T06:53:04.621Z,5.7
2019-04-11T06:54:02.954Z,5.7
2019-04-11T06:55:04.695Z,5.8
2019-04-11T06:56:03.728Z,5.8
2019-04-11T06:57:03.580Z,5.8
2019-04-11T06:58:03.218Z,5.8
2019-04-11T06:59:04.065Z,5.9
2019-04-11T07:00:03.126Z,6
2019-04-11T07:01:03.649Z,6.1
2019-04-11T07:02:21.315Z,6.2
2019-04-11T07:03:03.674Z,6.2
2019-04-11T07:04:03.192Z,6.2
2019-04-11T07:05:04.721Z,6.3
2019-04-11T07:06:03.034Z,6.5
2019-04-11T07:07:02.901Z,6.6
2019-04-11T07:08:02.963Z,6.6
2019-04-11T07:09:03.449Z,6.7
2019-04-11T07:10:04.285Z,6.6
2019-04-11T07:11:03.629Z,6.7
2019-04-11T07:12:03.660Z,6.8
2019-04-11T07:13:03.630Z,6.8
2019-04-11T07:14:02.700Z,6.8
2019-04-11T07:15:04.645Z,6.7
2019-04-11T07:16:04.837Z,6.9
2019-04-11T07:17:10.387Z,6.8
2019-04-11T07:18:07.733Z,6.7
2019-04-11T07:19:04.949Z,6.5
2019-04-11T07:20:02.796Z,6.5
2019-04-11T07:21:03.220Z,6.7
2019-04-11T07:22:03.335Z,6.6
2019-04-11T07:23:03.871Z,6.3
2019-04-11T07:24:03.436Z,6.3
2019-04-11T07:25:04.075Z,6.3
2019-04-11T07:26:04.623Z,6.3
2019-04-11T07:27:03.250Z,6.3
2019-04-11T07:28:03.835Z,6.4
2019-04-11T07:29:02.607Z,6.3
2019-04-11T07:30:03.371Z,6.4
2019-04-11T07:31:04.622Z,6.3
2019-04-11T07:32:05.083Z,6.3
2019-04-11T07:33:04.058Z,6.3
2019-04-11T07:34:02.978Z,6.3
2019-04-11T07:35:05.316Z,6.3
2019-04-11T07:36:03.977Z,6.2
2019-04-11T07:37:02.976Z,6.2
2019-04-11T07:38:03.279Z,6.1
2019-04-11T07:39:03.380Z,6.1
2019-04-11T07:40:06.363Z,6.1
2019-04-11T07:41:04.335Z,6.1
2019-04-11T07:42:02.850Z,6.1
2019-04-11T07:43:14.928Z,6
2019-04-11T07:44:04.415Z,6.1
2019-04-11T07:45:04.340Z,6.1
2019-04-11T07:46:02.911Z,6.1
2019-04-11T07:47:23.070Z,6
2019-04-11T07:48:03.356Z,6.1
2019-04-11T07:49:03.951Z,6.1
2019-04-11T07:50:03.389Z,6.1
2019-04-11T07:51:03.318Z,6
2019-04-11T07:52:03.102Z,6
2019-04-11T07:53:03.279Z,6.1
2019-04-11T07:54:02.834Z,6.1
2019-04-11T07:55:04.738Z,6.1
2019-04-11T07:56:05.172Z,6.1
2019-04-11T07:57:04.351Z,6.1
2019-04-11T07:58:04.448Z,6.1
2019-04-11T07:59:03.187Z,6.1
2019-04-11T08:00:03.983Z,6
2019-04-11T08:01:03.431Z,6
2019-04-11T08:02:03.850Z,6.1
2019-04-11T08:03:04.272Z,6.1
2019-04-11T08:04:03.921Z,6.2
2019-04-11T08:05:04.585Z,6.3
2019-04-11T08:06:03.355Z,6.2
2019-04-11T08:07:04.544Z,6.2
2019-04-11T08:08:08.194Z,6.1
2019-04-11T08:09:03.322Z,6.1
2019-04-11T08:10:03.343Z,6.2
2019-04-11T08:11:02.811Z,6.1
2019-04-11T08:12:04.656Z,6.1
2019-04-11T08:13:03.879Z,6.2
2019-04-11T08:14:02.630Z,6.2
2019-04-11T08:15:02.980Z,6.2
2019-04-11T08:16:04.502Z,6.1
2019-04-11T08:17:03.948Z,6.1
2019-04-11T08:18:04.175Z,6.2
2019-04-11T08:19:03.779Z,6.2
2019-04-11T08:20:05.090Z,6.2
2019-04-11T08:21:03.942Z,6.2
2019-04-11T08:22:03.548Z,6.3
2019-04-11T08:23:03.733Z,6.3
2019-04-11T08:24:04.548Z,6.3
2019-04-11T08:25:03.014Z,6.4
2019-04-11T08:26:04.127Z,6.4
2019-04-11T08:27:03.432Z,6.4
2019-04-11T08:28:09.895Z,6.4
2019-04-11T08:29:15.618Z,6.4
2019-04-11T08:30:03.431Z,6.4
2019-04-11T08:31:03.661Z,6.4
2019-04-11T08:32:03.154Z,6.5
2019-04-11T08:33:03.047Z,6.4
2019-04-11T08:34:02.926Z,6.5
2019-04-11T08:35:04.126Z,6.6
2019-04-11T08:36:02.866Z,6.5
2019-04-11T08:37:03.498Z,6.6
2019-04-11T08:38:04.668Z,6.6
2019-04-11T08:39:04.925Z,6.7
2019-04-11T08:40:04.074Z,6.7
2019-04-11T08:41:03.238Z,6.7
2019-04-11T08:42:03.363Z,6.8
2019-04-11T08:43:02.870Z,6.8
2019-04-11T08:44:03.770Z,6.8
2019-04-11T08:45:04.200Z,6.8
2019-04-11T08:46:04.777Z,6.7
2019-04-11T08:47:04.530Z,6.7
2019-04-11T08:48:04.620Z,6.6
2019-04-11T08:49:03.831Z,6.6
2019-04-11T08:50:04.052Z,6.6
2019-04-11T08:51:03.428Z,6.7
2019-04-11T08:52:03.887Z,6.7
2019-04-11T08:53:04.690Z,6.8
2019-04-11T08:54:02.995Z,6.8
2019-04-11T08:55:04.348Z,6.8
2019-04-11T08:56:05.672Z,6.8
2019-04-11T08:57:03.335Z,6.8
2019-04-11T08:58:04.544Z,6.9
2019-04-11T08:59:02.997Z,6.9
2019-04-11T09:00:04.325Z,6.9
2019-04-11T09:01:03.544Z,6.9
2019-04-11T09:02:04.772Z,6.7
2019-04-11T09:03:02.614Z,6.6
2019-04-11T09:04:12.475Z,6.8
2019-04-11T09:05:18.202Z,6.9
2019-04-11T09:06:04.472Z,6.9
2019-04-11T09:07:03.698Z,6.9
2019-04-11T09:08:03.528Z,6.9
2019-04-11T09:09:04.983Z,7.1
2019-04-11T09:10:04.295Z,6.9
2019-04-11T09:11:02.906Z,7.1
2019-04-11T09:12:04.579Z,7.2
2019-04-11T09:13:03.234Z,7.1
2019-04-11T09:14:04.048Z,7.1
2019-04-11T09:15:04.554Z,7.1
2019-04-11T09:16:03.606Z,7.1
2019-04-11T09:17:03.976Z,7.1
2019-04-11T09:18:13.392Z,7.1
2019-04-11T09:19:03.745Z,7.2
2019-04-11T09:20:03.689Z,7.2
2019-04-11T09:21:04.414Z,7.2
2019-04-11T09:22:03.321Z,7.3
2019-04-11T09:23:03.909Z,7.4
2019-04-11T09:24:03.062Z,7.4
2019-04-11T09:25:03.554Z,7.4
2019-04-11T09:26:03.761Z,7.7
2019-04-11T09:27:03.082Z,7.6
2019-04-11T09:28:02.998Z,7.6
2019-04-11T09:29:04.114Z,7.5
2019-04-11T09:30:02.863Z,7.6
2019-04-11T09:31:10.581Z,7.6
2019-04-11T09:32:02.770Z,7.6
2019-04-11T09:33:03.262Z,7.6
2019-04-11T09:34:03.898Z,7.4
2019-04-11T09:35:03.159Z,7.5
2019-04-11T09:36:03.955Z,7.6
2019-04-11T09:37:03.742Z,7.6
2019-04-11T09:38:02.866Z,7.4
2019-04-11T09:39:04.691Z,7.6
2019-04-11T09:40:03.944Z,7.7
2019-04-11T09:41:04.124Z,7.6
2019-04-11T09:42:03.166Z,7.8
2019-04-11T09:43:03.980Z,7.9
2019-04-11T09:44:04.512Z,7.8
2019-04-11T09:45:03.713Z,7.8
2019-04-11T09:46:03.886Z,7.8
2019-04-11T09:47:03.590Z,7.9
2019-04-11T09:48:18.170Z,7.9
2019-04-11T09:49:03.064Z,7.9
2019-04-11T09:50:04.457Z,7.9
2019-04-11T09:51:03.177Z,7.8
2019-04-11T09:52:03.013Z,8
2019-04-11T09:53:03.763Z,7.9
2019-04-11T09:54:03.693Z,8.2
2019-04-11T09:55:04.602Z,8.2
2019-04-11T09:56:02.905Z,8.3
2019-04-11T09:57:04.574Z,8.3
2019-04-11T09:58:03.142Z,8.3
2019-04-11T09:59:02.934Z,8.3
2019-04-11T10:00:03.984Z,8.4
2019-04-11T10:01:03.907Z,8.3
2019-04-11T10:02:02.817Z,8.4
2019-04-11T10:03:03.141Z,8.5
2019-04-11T10:04:03.809Z,8.5
2019-04-11T10:05:03.739Z,8.5
2019-04-11T10:06:03.167Z,8.6
2019-04-11T10:07:03.562Z,8.6
2019-04-11T10:08:03.205Z,8.8
2019-04-11T10:09:03.921Z,8.9
2019-04-11T10:10:04.810Z,9.1
2019-04-11T10:11:03.853Z,9.1
2019-04-11T10:12:02.707Z,9.3
2019-04-11T10:13:02.834Z,9.4
2019-04-11T10:14:02.887Z,9.3
2019-04-11T10:15:03.264Z,9.2
2019-04-11T10:16:04.096Z,9.1
2019-04-11T10:17:04.262Z,9.3
2019-04-11T10:18:03.275Z,9.5
2019-04-11T10:19:03.590Z,9.4
2019-04-11T10:20:04.804Z,9.1
2019-04-11T10:21:03.183Z,9.1
2019-04-11T10:22:02.986Z,9.2
2019-04-11T10:23:05.066Z,9.1
2019-04-11T10:24:02.947Z,9.1
2019-04-11T10:25:03.443Z,9.4
2019-04-11T10:26:03.687Z,9.4
2019-04-11T10:27:02.836Z,10
2019-04-11T10:28:03.079Z,10.1
2019-04-11T10:29:04.481Z,9.8
2019-04-11T10:30:04.247Z,10
2019-04-11T10:31:04.425Z,9.6
2019-04-11T10:32:03.419Z,9.7
2019-04-11T10:33:04.657Z,9.8
2019-04-11T10:34:06.168Z,9.6
2019-04-11T10:35:03.215Z,10.1
2019-04-11T10:36:03.202Z,10.1
2019-04-11T10:37:03.745Z,9.9
2019-04-11T10:38:02.942Z,10.1
2019-04-11T10:39:03.067Z,10.2
2019-04-11T10:40:04.086Z,9.9
2019-04-11T10:41:04.309Z,10
2019-04-11T10:42:04.475Z,10.4
2019-04-11T10:43:04.460Z,10.5
2019-04-11T10:44:03.661Z,10.5
2019-04-11T10:45:04.790Z,10.7
2019-04-11T10:46:03.345Z,10.4
2019-04-11T10:47:09.846Z,10.4
2019-04-11T10:48:03.492Z,10.8
2019-04-11T10:49:03.807Z,10.8
2019-04-11T10:50:03.648Z,10.6
2019-04-11T10:51:04.719Z,10.6
2019-04-11T10:52:02.802Z,10.3
2019-04-11T10:53:03.119Z,10.3
2019-04-11T10:54:08.569Z,10.6
2019-04-11T10:55:03.462Z,10.6
2019-04-11T10:56:04.002Z,10.6
2019-04-11T10:57:03.626Z,10.5
2019-04-11T10:58:04.945Z,10.9
2019-04-11T10:59:03.560Z,11.3
2019-04-11T11:00:03.279Z,11.1
2019-04-11T11:01:04.087Z,11
2019-04-11T11:02:04.664Z,10.6
2019-04-11T11:03:04.214Z,10.6
2019-04-11T11:04:03.516Z,10.9
2019-04-11T11:05:03.638Z,11.3
2019-04-11T11:06:03.489Z,11.1
2019-04-11T11:07:04.530Z,10.6
2019-04-11T11:08:03.087Z,10.8
2019-04-11T11:09:04.047Z,10.8
2019-04-11T11:10:03.343Z,10.6
2019-04-11T11:11:04.025Z,10.7
2019-04-11T11:12:03.753Z,10.6
2019-04-11T11:13:03.578Z,11.1
2019-04-11T11:14:02.963Z,11.3
2019-04-11T11:15:03.350Z,11.1
2019-04-11T11:16:07.739Z,10.8
2019-04-11T11:17:03.100Z,11.2
2019-04-11T11:19:27.205Z,11.2
2019-04-11T11:19:54.521Z,10.9
2019-04-11T11:20:27.790Z,10.9
2019-04-11T11:21:07.433Z,10.9
2019-04-11T11:22:05.379Z,11.3
2019-04-11T11:23:13.015Z,11.5
2019-04-11T11:24:10.238Z,11.4
2019-04-11T11:25:03.339Z,11.7
2019-04-11T11:26:02.982Z,11.9
2019-04-11T11:27:05.803Z,11.7
2019-04-11T11:28:03.821Z,12.2
2019-04-11T11:29:15.116Z,12
2019-04-11T11:30:06.300Z,11.4
2019-04-11T11:31:03.397Z,11.4
2019-04-11T11:32:03.266Z,11.1
2019-04-11T11:33:03.853Z,11.3
2019-04-11T11:34:03.606Z,11.3
2019-04-11T11:35:03.558Z,11.4
2019-04-11T11:36:11.133Z,11.6
2019-04-11T11:37:02.792Z,11.8
2019-04-11T11:38:04.078Z,11.6
2019-04-11T11:39:02.721Z,11.7
2019-04-11T11:40:16.315Z,11.7
2019-04-11T11:41:04.033Z,11.6
2019-04-11T11:42:04.238Z,11.5
2019-04-11T11:43:03.631Z,11.5
2019-04-11T11:44:03.582Z,11.4
2019-04-11T11:45:05.658Z,11.4
2019-04-11T11:46:03.441Z,11.7
2019-04-11T11:47:06.864Z,11.4
2019-04-11T11:48:02.590Z,11.3
2019-04-11T11:49:03.990Z,11.4
2019-04-11T11:50:14.137Z,11.7
2019-04-11T11:51:03.517Z,11.9
2019-04-11T11:52:03.661Z,12.1
2019-04-11T11:53:13.276Z,11.8
2019-04-11T11:54:03.237Z,11.3
2019-04-11T11:55:04.200Z,11.3
2019-04-11T11:56:03.434Z,11.1
2019-04-11T11:57:04.709Z,11.2
2019-04-11T11:58:03.557Z,11.4
2019-04-11T11:59:03.877Z,11.6
2019-04-11T12:00:03.490Z,11.6
2019-04-11T12:01:09.612Z,11.6
2019-04-11T12:02:04.567Z,11.6
2019-04-11T12:03:03.778Z,11.7
2019-04-11T12:04:05.153Z,11.6
2019-04-11T12:05:16.213Z,11.6
2019-04-11T12:06:03.414Z,11.7
2019-04-11T12:07:07.464Z,12.1
2019-04-11T12:08:04.413Z,11.7
2019-04-11T12:09:04.556Z,11.8
2019-04-11T12:10:03.263Z,11.7
2019-04-11T12:11:04.109Z,11.4
2019-04-11T12:12:04.439Z,11.2
2019-04-11T12:13:12.930Z,11.4
2019-04-11T12:14:04.190Z,11.4
2019-04-11T12:15:03.614Z,11.1
2019-04-11T12:16:03.863Z,11.1
2019-04-11T12:17:08.035Z,11.4
2019-04-11T12:18:09.597Z,11.3
2019-04-11T12:19:02.921Z,11
2019-04-11T12:20:16.292Z,11.1
2019-04-11T12:21:03.469Z,11.2
2019-04-11T12:22:04.425Z,11.1
2019-04-11T12:23:04.736Z,11.1
2019-04-11T12:24:08.635Z,10.9
2019-04-11T12:25:03.321Z,10.9
2019-04-11T12:26:03.619Z,11.1
2019-04-11T12:27:04.612Z,11.3
2019-04-11T12:28:14.926Z,11.3
2019-04-11T12:29:03.164Z,11
2019-04-11T12:30:10.390Z,11.1
2019-04-11T12:31:05.545Z,11.1
2019-04-11T12:32:04.158Z,10.8
2019-04-11T12:33:03.551Z,10.8
2019-04-11T12:34:03.007Z,10.8
2019-04-11T12:35:04.206Z,10.7
2019-04-11T12:36:03.647Z,10.7
2019-04-11T12:37:04.434Z,10.6
2019-04-11T12:38:03.598Z,10.7
2019-04-11T12:39:03.289Z,10.6
2019-04-11T12:40:03.047Z,10.6
2019-04-11T12:41:03.451Z,10.6
2019-04-11T12:42:02.977Z,10.6
2019-04-11T12:43:03.186Z,10.5
2019-04-11T12:44:03.062Z,10.5
2019-04-11T12:45:03.395Z,10.5
2019-04-11T12:46:03.093Z,10.8
2019-04-11T12:47:03.139Z,10.7
2019-04-11T12:48:02.912Z,10.6
2019-04-11T12:49:03.066Z,10.6
2019-04-11T12:50:03.035Z,10.8
2019-04-11T12:51:02.887Z,10.8
2019-04-11T12:52:03.004Z,10.8
2019-04-11T12:53:03.507Z,10.7
2019-04-11T12:54:02.562Z,10.7
2019-04-11T12:55:02.962Z,10.7
2019-04-11T12:56:02.921Z,10.8
2019-04-11T12:57:03.760Z,10.9
2019-04-11T12:58:02.953Z,11.1
2019-04-11T12:59:02.942Z,10.9
2019-04-11T13:00:02.861Z,10.9
2019-04-11T13:01:03.735Z,10.9
2019-04-11T13:02:03.554Z,10.9
2019-04-11T13:03:03.015Z,11.1
2019-04-11T13:04:03.476Z,10.9
2019-04-11T13:05:03.578Z,11
2019-04-11T13:06:03.690Z,10.9
2019-04-11T13:07:03.554Z,10.8
2019-04-11T13:08:03.193Z,10.9
2019-04-11T13:09:03.121Z,10.9
2019-04-11T13:10:03.564Z,10.9
2019-04-11T13:11:03.275Z,10.8
2019-04-11T13:12:03.430Z,10.8
2019-04-11T13:13:03.372Z,10.8
2019-04-11T13:14:03.416Z,10.8
2019-04-11T13:15:03.836Z,10.9
2019-04-11T13:16:13.008Z,10.9
2019-04-11T13:17:03.372Z,10.8
2019-04-11T13:18:03.111Z,10.8
2019-04-11T13:19:03.131Z,10.8
2019-04-11T13:20:05.411Z,10.8
2019-04-11T13:21:03.129Z,10.8
2019-04-11T13:22:03.115Z,10.6
2019-04-11T13:23:03.072Z,10.6
2019-04-11T13:24:02.840Z,10.7
2019-04-11T13:25:03.375Z,10.5
2019-04-11T13:26:03.011Z,10.6
2019-04-11T13:27:03.069Z,10.6
2019-04-11T13:28:02.954Z,10.6
2019-04-11T13:29:03.182Z,10.5
2019-04-11T13:30:03.240Z,10.5
2019-04-11T13:31:03.018Z,10.4
2019-04-11T13:32:03.041Z,10.3
2019-04-11T13:33:02.770Z,10.4
2019-04-11T13:34:03.729Z,10.4
2019-04-11T13:35:02.875Z,10.4
2019-04-11T13:36:02.855Z,10.4
2019-04-11T13:37:03.050Z,10.3
2019-04-11T13:38:03.769Z,10.3
2019-04-11T13:39:06.472Z,10.4
2019-04-11T13:40:03.001Z,10.3
2019-04-11T13:41:02.944Z,10.3
2019-04-11T13:42:03.659Z,10.3
2019-04-11T13:43:02.715Z,10.3
2019-04-11T13:44:02.892Z,10.3